createdAt,value
2019-04-28T00:00:37.207Z,9.10
2019-04-28T00:03:06.728Z,9.20
2019-04-28T00:05:37.276Z,9.20
2019-04-28T00:08:07.748Z,9.20
2019-04-28T00:10:37.103Z,9.20
2019-04-28T00:13:06.667Z,9.20
2019-04-28T00:15:36.097Z,9.10
2019-04-28T00:18:06.447Z,9.10
2019-04-28T00:20:43.304Z,9.10
2019-04-28T00:23:16.984Z,9.10
2019-04-28T00:26:05.353Z,9.00
2019-04-28T00:28:34.767Z,9.10
2019-04-28T00:31:04.161Z,9.20
2019-04-28T00:33:33.715Z,9.20
2019-04-28T00:36:03.167Z,9.10
2019-04-28T00:38:32.623Z,9.20
2019-04-28T00:41:02.425Z,9.20
2019-04-28T00:43:31.913Z,9.10
2019-04-28T00:46:02.076Z,9.20
2019-04-28T00:48:31.423Z,9.20
2019-04-28T00:51:01.787Z,9.20
2019-04-28T00:53:31.314Z,9.20
2019-04-28T00:56:02.176Z,9.20
2019-04-28T00:58:31.979Z,9.30
2019-04-28T01:01:21.242Z,9.30
2019-04-28T01:03:51.972Z,9.40
2019-04-28T01:06:22.209Z,9.40
2019-04-28T01:08:51.730Z,9.40
2019-04-28T01:11:21.747Z,9.40
2019-04-28T01:13:51.788Z,9.40
2019-04-28T01:16:40.080Z,9.30
2019-04-28T01:19:14.210Z,9.40
2019-04-28T01:22:01.513Z,9.30
2019-04-28T01:24:31.504Z,9.40
2019-04-28T01:27:00.997Z,9.30
2019-04-28T01:29:30.324Z,9.30
2019-04-28T01:32:20.399Z,9.30
2019-04-28T01:34:49.891Z,9.30
2019-04-28T01:37:19.685Z,9.30
2019-04-28T01:39:50.136Z,9.30
2019-04-28T01:42:20.372Z,9.30
2019-04-28T01:44:50.979Z,9.30
2019-04-28T01:47:20.522Z,9.30
2019-04-28T01:49:50.188Z,9.30
2019-04-28T01:52:20.266Z,9.30
2019-04-28T01:54:50.237Z,9.30
2019-04-28T01:57:21.369Z,9.30
2019-04-28T01:59:50.873Z,9.30
2019-04-28T02:02:20.310Z,9.30
2019-04-28T02:04:49.970Z,9.20
2019-04-28T02:07:20.595Z,9.30
2019-04-28T02:09:50.140Z,9.30
2019-04-28T02:12:20.579Z,9.20
2019-04-28T02:14:52.045Z,9.20
2019-04-28T02:17:21.062Z,9.20
2019-04-28T02:19:51.536Z,9.10
2019-04-28T02:22:30.153Z,9.10
2019-04-28T02:25:00.356Z,9.10
2019-04-28T02:27:30.273Z,9.10
2019-04-28T02:30:00.261Z,9.10
2019-04-28T02:32:31.522Z,9.10
2019-04-28T02:35:01.733Z,9.10
2019-04-28T02:37:31.249Z,9.10
2019-04-28T02:40:03.426Z,9.10
2019-04-28T02:42:33.055Z,9.10
2019-04-28T02:45:02.434Z,9.10
2019-04-28T02:47:34.180Z,9.10
2019-04-28T02:50:07.634Z,9.10
2019-04-28T02:52:53.775Z,9.10
2019-04-28T02:55:23.587Z,9.10
2019-04-28T02:57:52.972Z,9.10
2019-04-28T03:00:22.392Z,9.20
2019-04-28T03:02:51.862Z,9.10
2019-04-28T03:05:21.869Z,9.20
2019-04-28T03:07:51.809Z,9.20
2019-04-28T03:10:21.674Z,9.10
2019-04-28T03:12:51.897Z,9.10
2019-04-28T03:15:21.396Z,9.00
2019-04-28T03:17:53.238Z,9.00
2019-04-28T03:20:21.793Z,9.00
2019-04-28T03:22:51.768Z,9.00
2019-04-28T03:25:40.855Z,9.00
2019-04-28T03:28:14.257Z,9.10
2019-04-28T03:30:45.195Z,9.00
2019-04-28T03:33:19.062Z,9.00
2019-04-28T03:35:47.177Z,9.00
2019-04-28T03:38:16.541Z,8.80
2019-04-28T03:40:45.821Z,8.90
2019-04-28T03:43:15.193Z,8.90
2019-04-28T03:45:50.349Z,8.80
2019-04-28T03:48:21.093Z,8.80
2019-04-28T03:50:51.353Z,8.80
2019-04-28T03:53:20.892Z,8.80
2019-04-28T03:55:51.228Z,8.80
2019-04-28T03:58:23.610Z,8.80
2019-04-28T04:00:51.852Z,8.70
2019-04-28T04:03:21.325Z,8.70
2019-04-28T04:05:51.105Z,8.80
2019-04-28T04:08:21.159Z,8.80
2019-04-28T04:10:55.245Z,8.70
2019-04-28T04:13:30.526Z,8.80
2019-04-28T04:16:04.988Z,8.80
2019-04-28T04:18:53.139Z,8.80
2019-04-28T04:21:21.399Z,8.80
2019-04-28T04:23:51.118Z,8.80
2019-04-28T04:26:21.348Z,8.80
2019-04-28T04:28:51.673Z,8.90
2019-04-28T04:31:21.228Z,8.80
2019-04-28T04:33:50.865Z,8.70
2019-04-28T04:36:21.192Z,8.60
2019-04-28T04:38:51.875Z,8.60
2019-04-28T04:41:21.380Z,8.60
2019-04-28T04:43:51.784Z,8.60
2019-04-28T04:46:23.000Z,8.50
2019-04-28T04:48:52.449Z,8.60
2019-04-28T04:51:21.967Z,8.60
2019-04-28T04:53:51.779Z,8.60
2019-04-28T04:56:21.661Z,8.70
2019-04-28T04:58:51.297Z,8.80
2019-04-28T05:01:30.295Z,8.90
2019-04-28T05:04:06.512Z,9.00
2019-04-28T05:06:41.594Z,8.90
2019-04-28T05:09:11.432Z,8.90
2019-04-28T05:11:40.843Z,8.90
2019-04-28T05:14:11.982Z,8.90
2019-04-28T05:16:41.308Z,8.90
2019-04-28T05:19:10.758Z,8.90
2019-04-28T05:21:40.534Z,8.90
2019-04-28T05:24:15.776Z,8.90
2019-04-28T05:26:47.536Z,8.90
2019-04-28T05:29:14.768Z,9.10
2019-04-28T05:31:44.125Z,9.20
2019-04-28T05:34:13.492Z,9.20
2019-04-28T05:36:44.710Z,9.10
2019-04-28T05:39:14.284Z,9.20
2019-04-28T05:41:43.708Z,9.20
2019-04-28T05:44:14.747Z,9.20
2019-04-28T05:46:44.114Z,9.20
2019-04-28T05:49:15.157Z,9.40
2019-04-28T05:51:50.476Z,9.30
2019-04-28T05:54:31.510Z,9.40
2019-04-28T05:57:02.710Z,9.20
2019-04-28T05:59:45.741Z,9.30
2019-04-28T06:02:30.693Z,9.40
2019-04-28T06:05:00.073Z,9.50
2019-04-28T06:07:33.772Z,9.50
2019-04-28T06:10:03.864Z,9.40
2019-04-28T06:12:33.326Z,9.40
2019-04-28T06:15:03.034Z,9.40
2019-04-28T06:17:32.487Z,9.30
2019-04-28T06:20:01.828Z,9.70
2019-04-28T06:22:31.367Z,9.80
2019-04-28T06:25:00.826Z,9.60
2019-04-28T06:27:32.653Z,9.60
2019-04-28T06:30:02.450Z,9.70
2019-04-28T06:32:33.058Z,9.80
2019-04-28T06:35:02.459Z,9.60
2019-04-28T06:37:31.886Z,9.70
2019-04-28T06:40:01.330Z,9.80
2019-04-28T06:42:30.798Z,9.80
2019-04-28T06:45:00.192Z,10.20
2019-04-28T06:47:29.828Z,10.00
2019-04-28T06:49:59.203Z,10.00
2019-04-28T06:52:28.643Z,10.20
2019-04-28T06:54:58.053Z,10.30
2019-04-28T06:57:27.566Z,10.40
2019-04-28T06:59:56.924Z,10.30
2019-04-28T07:02:26.287Z,10.40
2019-04-28T07:05:01.620Z,10.50
2019-04-28T07:07:26.777Z,10.70
2019-04-28T07:09:56.175Z,10.90
2019-04-28T07:12:25.805Z,10.80
2019-04-28T07:14:55.151Z,10.80
2019-04-28T07:17:24.531Z,10.70
2019-04-28T07:20:01.366Z,10.70
2019-04-28T07:22:32.308Z,10.70
2019-04-28T07:25:01.648Z,11.00
2019-04-28T07:27:31.105Z,11.50
2019-04-28T07:30:00.385Z,11.50
2019-04-28T07:32:30.808Z,11.60
2019-04-28T07:35:00.181Z,11.80
2019-04-28T07:37:30.616Z,11.70
2019-04-28T07:40:00.093Z,11.50
2019-04-28T07:42:29.435Z,11.70
2019-04-28T07:44:58.792Z,11.70
2019-04-28T07:47:40.771Z,11.80
2019-04-28T07:50:10.135Z,11.70
2019-04-28T07:52:44.048Z,11.70
2019-04-28T07:55:13.466Z,11.80
2019-04-28T07:57:42.811Z,11.90
2019-04-28T08:00:13.984Z,12.10
2019-04-28T08:02:43.428Z,11.90
2019-04-28T08:05:12.863Z,11.80
2019-04-28T08:07:42.555Z,11.90
2019-04-28T08:10:11.934Z,11.90
2019-04-28T08:12:41.720Z,11.80
2019-04-28T08:15:11.156Z,11.60
2019-04-28T08:17:40.535Z,11.40
2019-04-28T08:20:09.815Z,11.50
2019-04-28T08:22:39.533Z,11.70
2019-04-28T08:25:10.526Z,11.80
2019-04-28T08:27:40.473Z,11.90
2019-04-28T08:30:10.158Z,11.90
2019-04-28T08:32:46.529Z,12.10
2019-04-28T08:35:16.981Z,11.80
2019-04-28T08:37:46.536Z,11.80
2019-04-28T08:40:15.863Z,11.50
2019-04-28T08:42:48.379Z,11.60
2019-04-28T08:45:17.822Z,11.60
2019-04-28T08:47:47.265Z,11.60
2019-04-28T08:50:16.726Z,11.50
2019-04-28T08:52:46.260Z,11.50
2019-04-28T08:55:15.731Z,12.10
2019-04-28T08:57:45.097Z,12.20
2019-04-28T09:00:16.125Z,12.20
2019-04-28T09:02:47.159Z,12.10
2019-04-28T09:05:18.178Z,12.10
2019-04-28T09:07:47.733Z,12.00
2019-04-28T09:10:17.164Z,12.20
2019-04-28T09:12:46.538Z,12.30
2019-04-28T09:15:18.824Z,12.60
2019-04-28T09:17:48.282Z,12.70
2019-04-28T09:20:19.714Z,12.70
2019-04-28T09:22:48.812Z,12.70
2019-04-28T09:25:18.488Z,13.10
2019-04-28T09:27:47.889Z,13.40
2019-04-28T09:30:17.351Z,13.50
2019-04-28T09:32:46.812Z,13.80
2019-04-28T09:35:16.151Z,13.80
2019-04-28T09:37:45.447Z,13.50
2019-04-28T09:40:16.212Z,13.40
2019-04-28T09:42:47.255Z,13.10
2019-04-28T09:45:21.031Z,12.70
2019-04-28T09:47:50.398Z,12.60
2019-04-28T09:50:19.685Z,13.00
2019-04-28T09:52:49.132Z,13.30
2019-04-28T09:55:18.496Z,13.40
2019-04-28T09:57:47.846Z,13.40
2019-04-28T10:00:17.288Z,13.20
2019-04-28T10:02:46.738Z,13.40
2019-04-28T10:05:16.171Z,13.50
2019-04-28T10:07:45.637Z,13.60
2019-04-28T10:10:14.982Z,14.40
2019-04-28T10:12:44.395Z,14.40
2019-04-28T10:15:13.880Z,14.40
2019-04-28T10:17:43.340Z,14.30
2019-04-28T10:20:12.692Z,14.30
2019-04-28T10:22:42.011Z,14.20
2019-04-28T10:25:11.387Z,14.20
2019-04-28T10:27:40.792Z,13.60
2019-04-28T10:30:10.415Z,13.40
2019-04-28T10:32:39.750Z,13.40
2019-04-28T10:35:09.145Z,13.40
2019-04-28T10:37:38.608Z,13.30
2019-04-28T10:40:09.787Z,13.50
2019-04-28T10:42:39.139Z,14.10
2019-04-28T10:45:10.165Z,14.60
2019-04-28T10:47:39.535Z,14.90
2019-04-28T10:50:08.902Z,15.10
2019-04-28T10:52:38.455Z,15.10
2019-04-28T10:55:08.036Z,15.00
2019-04-28T10:57:37.613Z,14.50
2019-04-28T11:00:08.546Z,13.60
2019-04-28T11:02:39.618Z,13.40
2019-04-28T11:05:13.348Z,13.70
2019-04-28T11:07:42.777Z,13.80
2019-04-28T11:10:25.171Z,13.80
2019-04-28T11:12:54.603Z,13.80
2019-04-28T11:15:34.505Z,14.30
2019-04-28T11:18:05.784Z,14.60
2019-04-28T11:20:35.290Z,15.30
2019-04-28T11:23:04.724Z,15.50
2019-04-28T11:25:34.126Z,15.00
2019-04-28T11:28:03.491Z,15.00
2019-04-28T11:30:33.052Z,15.00
2019-04-28T11:33:13.187Z,14.70
2019-04-28T11:35:43.519Z,14.50
2019-04-28T11:38:12.903Z,14.50
2019-04-28T11:40:42.411Z,14.70
2019-04-28T11:43:11.999Z,15.00
2019-04-28T11:45:41.431Z,15.10
2019-04-28T11:48:10.771Z,15.20
2019-04-28T11:50:40.122Z,15.00
2019-04-28T11:53:09.555Z,15.30
2019-04-28T11:55:39.326Z,15.20
2019-04-28T11:58:09.060Z,15.10
2019-04-28T12:00:38.509Z,15.30
2019-04-28T12:03:08.011Z,15.60
2019-04-28T12:05:39.347Z,15.30
2019-04-28T12:08:08.707Z,16.10
2019-04-28T12:10:42.700Z,16.80
2019-04-28T12:13:29.914Z,17.20
2019-04-28T12:16:04.088Z,17.50
2019-04-28T12:18:41.105Z,19.20
2019-04-28T12:21:10.635Z,20.90
2019-04-28T12:23:40.056Z,19.70
2019-04-28T12:26:09.658Z,18.30
2019-04-28T12:28:39.060Z,19.00
2019-04-28T12:31:08.559Z,18.80
2019-04-28T12:33:37.912Z,17.80
2019-04-28T12:36:08.507Z,17.30
2019-04-28T12:38:37.878Z,17.20
2019-04-28T12:41:07.243Z,16.70
2019-04-28T12:43:36.722Z,16.70
2019-04-28T12:46:06.148Z,16.30
2019-04-28T12:48:35.487Z,16.40
2019-04-28T12:51:05.003Z,16.40
2019-04-28T12:53:34.982Z,16.50
2019-04-28T12:56:04.302Z,16.60
2019-04-28T12:58:33.669Z,16.10
2019-04-28T13:01:10.505Z,16.50
2019-04-28T13:03:44.352Z,18.50
2019-04-28T13:06:21.028Z,20.40
2019-04-28T13:08:50.481Z,22.70
2019-04-28T13:11:27.841Z,23.60
2019-04-28T13:13:57.634Z,22.50
2019-04-28T13:16:31.217Z,20.90
2019-04-28T13:18:59.983Z,21.20
2019-04-28T13:21:33.205Z,22.70
2019-04-28T13:24:04.495Z,24.50
2019-04-28T13:26:41.549Z,25.00
2019-04-28T13:29:13.805Z,24.50
2019-04-28T13:31:45.358Z,24.40
2019-04-28T13:34:20.049Z,23.40
2019-04-28T13:36:49.833Z,21.50
2019-04-28T13:39:34.959Z,20.60
2019-04-28T13:42:07.490Z,19.20
2019-04-28T13:44:49.266Z,19.30
2019-04-28T13:47:18.593Z,19.40
2019-04-28T13:49:49.646Z,18.60
2019-04-28T13:52:19.143Z,18.60
2019-04-28T13:54:50.160Z,18.90
2019-04-28T13:57:19.530Z,19.00
2019-04-28T13:59:50.490Z,19.00
2019-04-28T14:02:21.722Z,22.50
2019-04-28T14:04:58.432Z,22.00
2019-04-28T14:07:27.879Z,23.40
2019-04-28T14:09:57.255Z,25.00
2019-04-28T14:12:29.059Z,25.40
2019-04-28T14:14:58.426Z,26.50
2019-04-28T14:17:28.028Z,26.80
2019-04-28T14:19:57.453Z,26.50
2019-04-28T14:22:26.701Z,25.20
2019-04-28T14:24:56.072Z,23.10
2019-04-28T14:27:25.394Z,22.00
2019-04-28T14:29:54.642Z,21.30
2019-04-28T14:32:25.573Z,20.70
2019-04-28T14:34:54.948Z,20.20
2019-04-28T14:37:24.386Z,20.30
2019-04-28T14:39:53.781Z,20.40
2019-04-28T14:42:23.146Z,22.30
2019-04-28T14:44:52.750Z,21.10
2019-04-28T14:47:22.149Z,20.20
2019-04-28T14:49:51.626Z,19.70
2019-04-28T14:52:20.931Z,22.90
2019-04-28T14:54:50.366Z,25.90
2019-04-28T14:57:19.740Z,26.30
2019-04-28T14:59:49.136Z,25.80
2019-04-28T15:02:20.190Z,24.40
2019-04-28T15:04:57.083Z,23.60
2019-04-28T15:07:42.648Z,23.80
2019-04-28T15:10:23.630Z,25.20
2019-04-28T15:12:53.080Z,26.00
2019-04-28T15:15:22.442Z,24.60
2019-04-28T15:17:51.926Z,24.00
2019-04-28T15:20:21.244Z,24.60
2019-04-28T15:22:50.651Z,24.70
2019-04-28T15:25:20.076Z,23.10
2019-04-28T15:27:49.449Z,22.20
2019-04-28T15:30:18.917Z,23.00
2019-04-28T15:32:48.471Z,22.70
2019-04-28T15:35:17.967Z,21.50
2019-04-28T15:37:47.321Z,21.80
2019-04-28T15:40:18.507Z,25.10
2019-04-28T15:42:47.885Z,27.10
2019-04-28T15:45:17.314Z,27.70
2019-04-28T15:47:46.707Z,27.10
2019-04-28T15:50:16.818Z,24.00
2019-04-28T15:52:46.320Z,21.60
2019-04-28T15:55:17.340Z,20.90
2019-04-28T15:57:46.721Z,20.60
2019-04-28T16:00:16.161Z,20.10
2019-04-28T16:02:46.034Z,19.60
2019-04-28T16:05:15.386Z,19.50
2019-04-28T16:07:44.823Z,19.20
2019-04-28T16:10:14.585Z,19.30
2019-04-28T16:12:43.939Z,18.60
2019-04-28T16:15:13.293Z,20.40
2019-04-28T16:17:42.943Z,22.50
2019-04-28T16:20:12.278Z,21.60
2019-04-28T16:22:41.721Z,21.50
2019-04-28T16:25:11.174Z,20.70
2019-04-28T16:27:40.523Z,20.00
2019-04-28T16:30:09.870Z,19.70
2019-04-28T16:32:39.229Z,19.60
2019-04-28T16:35:08.655Z,20.00
2019-04-28T16:37:39.223Z,20.30
2019-04-28T16:40:09.664Z,22.20
2019-04-28T16:42:41.434Z,21.90
2019-04-28T16:45:14.666Z,20.30
2019-04-28T16:47:44.106Z,19.50
2019-04-28T16:50:13.511Z,18.90
2019-04-28T16:52:42.982Z,18.40
2019-04-28T16:55:20.255Z,18.40
2019-04-28T16:57:57.401Z,18.40
2019-04-28T17:00:44.755Z,18.10
2019-04-28T17:03:14.229Z,17.70
2019-04-28T17:05:43.593Z,17.80
2019-04-28T17:08:12.962Z,17.60
2019-04-28T17:10:42.434Z,17.60
2019-04-28T17:13:11.815Z,17.50
2019-04-28T17:15:41.266Z,17.40
2019-04-28T17:18:10.797Z,17.50
2019-04-28T17:20:40.172Z,17.30
2019-04-28T17:23:09.548Z,17.40
2019-04-28T17:25:39.055Z,17.30
2019-04-28T17:28:08.397Z,17.10
2019-04-28T17:30:37.885Z,16.80
2019-04-28T17:33:07.399Z,16.50
2019-04-28T17:35:36.739Z,16.40
2019-04-28T17:38:07.166Z,16.10
2019-04-28T17:40:37.782Z,16.00
2019-04-28T17:43:07.877Z,15.80
2019-04-28T17:45:37.380Z,15.40
2019-04-28T17:48:23.500Z,15.50
2019-04-28T17:50:52.946Z,15.30
2019-04-28T17:53:22.260Z,15.20
2019-04-28T17:55:51.623Z,15.10
2019-04-28T17:58:21.024Z,15.10
2019-04-28T18:00:54.942Z,15.00
2019-04-28T18:03:28.668Z,14.90
2019-04-28T18:05:59.747Z,14.70
2019-04-28T18:08:29.087Z,14.70
2019-04-28T18:10:58.367Z,14.60
2019-04-28T18:13:27.690Z,14.40
2019-04-28T18:16:14.474Z,14.30
2019-04-28T18:18:48.189Z,14.30
2019-04-28T18:21:17.622Z,14.40
2019-04-28T18:23:46.971Z,14.30
2019-04-28T18:26:16.304Z,14.10
2019-04-28T18:28:45.660Z,14.10
2019-04-28T18:31:18.220Z,13.80
2019-04-28T18:34:06.237Z,13.80
2019-04-28T18:36:54.795Z,13.80
2019-04-28T18:39:33.537Z,13.80
2019-04-28T18:42:10.782Z,13.70
2019-04-28T18:44:40.175Z,13.60
2019-04-28T18:47:09.614Z,13.40
2019-04-28T18:49:39.040Z,13.30
2019-04-28T18:52:08.534Z,13.20
2019-04-28T18:54:37.999Z,13.30
2019-04-28T18:57:09.015Z,13.30
2019-04-28T18:59:38.363Z,13.30
2019-04-28T19:02:15.325Z,13.20
2019-04-28T19:04:44.660Z,13.20
2019-04-28T19:07:15.743Z,13.30
2019-04-28T19:09:46.742Z,13.20
2019-04-28T19:12:18.376Z,13.20
2019-04-28T19:15:07.869Z,13.10
2019-04-28T19:17:45.024Z,13.00
2019-04-28T19:20:14.371Z,13.00
2019-04-28T19:22:44.412Z,13.10
2019-04-28T19:25:13.939Z,12.80
2019-04-28T19:27:43.321Z,12.60
2019-04-28T19:30:12.748Z,12.70
2019-04-28T19:32:42.236Z,12.60
2019-04-28T19:35:11.617Z,12.40
2019-04-28T19:37:41.047Z,12.50
2019-04-28T19:40:10.527Z,12.40
2019-04-28T19:42:39.954Z,12.40
2019-04-28T19:45:12.064Z,12.50
2019-04-28T19:47:41.640Z,12.20
2019-04-28T19:50:10.988Z,12.20
2019-04-28T19:52:42.788Z,12.20
2019-04-28T19:55:13.000Z,12.00
2019-04-28T19:57:46.757Z,12.00
2019-04-28T20:00:17.697Z,12.10
2019-04-28T20:02:47.667Z,12.30
2019-04-28T20:05:17.085Z,12.00
2019-04-28T20:07:46.748Z,11.90
2019-04-28T20:10:16.094Z,11.80
2019-04-28T20:12:45.476Z,11.80
2019-04-28T20:15:14.815Z,11.80
2019-04-28T20:17:44.371Z,11.90
2019-04-28T20:20:13.923Z,11.80
2019-04-28T20:22:43.296Z,11.70
2019-04-28T20:25:12.643Z,11.70
2019-04-28T20:27:41.988Z,11.60
2019-04-28T20:30:11.411Z,11.60
2019-04-28T20:32:45.763Z,11.70
2019-04-28T20:35:16.971Z,11.70
2019-04-28T20:38:04.300Z,11.70
2019-04-28T20:40:53.375Z,11.60
2019-04-28T20:43:24.315Z,11.40
2019-04-28T20:45:53.727Z,11.50
2019-04-28T20:48:23.076Z,11.60
2019-04-28T20:50:52.355Z,11.50
2019-04-28T20:53:21.720Z,11.40
2019-04-28T20:55:51.056Z,11.50
2019-04-28T20:58:20.398Z,11.30
2019-04-28T21:00:49.819Z,11.30
2019-04-28T21:03:19.218Z,11.30
2019-04-28T21:05:48.692Z,11.30
2019-04-28T21:08:18.124Z,11.20
2019-04-28T21:10:47.566Z,11.20
2019-04-28T21:13:17.010Z,11.10
2019-04-28T21:15:46.507Z,11.10
2019-04-28T21:18:15.911Z,11.10
2019-04-28T21:20:45.403Z,11.20
2019-04-28T21:23:14.829Z,11.20
2019-04-28T21:25:44.258Z,11.10
2019-04-28T21:28:13.683Z,11.10
2019-04-28T21:30:43.097Z,11.10
2019-04-28T21:33:12.583Z,11.10
2019-04-28T21:35:43.051Z,11.10
2019-04-28T21:38:12.435Z,10.90
2019-04-28T21:40:43.034Z,10.90
2019-04-28T21:43:23.107Z,10.80
2019-04-28T21:45:54.172Z,10.90
2019-04-28T21:48:41.370Z,10.90
2019-04-28T21:51:12.017Z,10.80
2019-04-28T21:53:42.666Z,10.90
2019-04-28T21:56:13.002Z,10.70
2019-04-28T21:58:42.360Z,10.60
2019-04-28T22:01:13.988Z,10.70
2019-04-28T22:03:43.633Z,10.70
2019-04-28T22:06:13.075Z,10.60
2019-04-28T22:08:42.475Z,10.60
2019-04-28T22:11:11.909Z,10.60
2019-04-28T22:13:41.346Z,10.50
2019-04-28T22:16:11.731Z,10.40
2019-04-28T22:18:41.406Z,10.40
2019-04-28T22:21:11.818Z,10.40
2019-04-28T22:23:52.700Z,10.40
2019-04-28T22:29:13.183Z,10.10
2019-04-28T22:31:42.737Z,10.10
2019-04-28T22:34:12.943Z,10.00
2019-04-28T22:36:44.551Z,10.00
2019-04-28T22:39:13.978Z,9.90
2019-04-28T22:41:43.312Z,9.80
2019-04-28T22:44:13.778Z,9.90
2019-04-28T22:46:43.127Z,9.90
2019-04-28T22:49:12.769Z,9.80
2019-04-28T22:51:43.136Z,9.70
2019-04-28T22:54:26.197Z,9.70
2019-04-28T22:56:57.201Z,9.70
2019-04-28T22:59:34.197Z,9.70
2019-04-28T23:02:11.148Z,9.70
2019-04-28T23:04:44.876Z,9.50
2019-04-28T23:07:14.236Z,9.50
2019-04-28T23:09:43.623Z,9.60
2019-04-28T23:12:13.036Z,9.50
2019-04-28T23:14:42.411Z,9.50
2019-04-28T23:17:13.398Z,9.40
2019-04-28T23:19:44.099Z,9.50
2019-04-28T23:22:21.244Z,9.40
2019-04-28T23:24:50.607Z,9.30
2019-04-28T23:27:19.941Z,9.30
2019-04-28T23:29:49.279Z,9.20
2019-04-28T23:32:18.720Z,9.10
2019-04-28T23:34:48.070Z,9.20
2019-04-28T23:37:17.447Z,9.30
2019-04-28T23:39:46.877Z,9.20
2019-04-28T23:42:36.310Z,9.20
2019-04-28T23:45:07.037Z,9.20
2019-04-28T23:47:36.453Z,9.10
2019-04-28T23:50:08.069Z,9.00
2019-04-28T23:52:45.243Z,8.90
2019-04-28T23:55:15.003Z,9.00
2019-04-28T23:57:44.357Z,8.90
